This is the latest recevied weather packets stored in our database for station/object N5LSN. If no packets are shown the sender has not sent any weather packets the latest 1 day(s).
| Time | Temp. | Humidity | Pressure | Rain* | Wind** | Luminosity | Snow |
|---|---|---|---|---|---|---|---|
| 1836274826 | 20.56° C | 97% | 1017.6 hPa | 0 mm | 1.34 m/s, 26° | 0 W/m² | - |
| 1836274523 | 20.56° C | 97% | 1017.5 hPa | 0 mm | 0.45 m/s, 354° | 0 W/m² | - |
| 1836274377 | 20.56° C | 97% | 1017.6 hPa | 0 mm | 0 m/s | 0 W/m² | - |
| 1836274223 | 20.56° C | 97% | 1017.4 hPa | 0 mm | 0.45 m/s, 8° | 0 W/m² | - |
| 1836273922 | 20.56° C | 97% | 1017.1 hPa | 0 mm | 0 m/s | 0 W/m² | - |
| 1778057397 | 11.11° C | 99% | 1010.5 hPa | 0 mm | 1.79 m/s, 8° | 0 W/m² | - |
| 1778057094 | 11.11° C | 99% | 1010.4 hPa | 2.29 mm | 5.36 m/s, 47° | 0 W/m² | - |
| 1778056790 | 11.11° C | 99% | 1011.7 hPa | 5.33 mm | 4.02 m/s, 18° | 0 W/m² | - |
| 1778056488 | 11.11° C | 99% | 1011 hPa | 6.6 mm | 2.24 m/s, 23° | 0 W/m² | - |
| 1778056185 | 11.67° C | 99% | 1012.8 hPa | 3.56 mm | 4.02 m/s, 277° | 0 W/m² | - |
| 1778055882 | 11.67° C | 99% | 1010.6 hPa | 1.78 mm | 1.34 m/s, 35° | 0 W/m² | - |
| 1778055577 | 11.67° C | 99% | 1009.9 hPa | 4.83 mm | 2.24 m/s, 9° | 0 W/m² | - |
| 1778055276 | 11.67° C | 99% | 1009.9 hPa | 12.7 mm | 2.68 m/s, 345° | 0 W/m² | - |
| 1778054973 | 12.22° C | 99% | 1009.7 hPa | 19.81 mm | 3.13 m/s, 34° | 0 W/m² | - |
| 1778054670 | 12.22° C | 99% | 1009.1 hPa | 27.69 mm | 4.02 m/s, 23° | 0 W/m² | - |
| 1778054367 | 12.78° C | 99% | 1009.2 hPa | 19.3 mm | 4.47 m/s, 40° | 0 W/m² | - |
| 1778054065 | 12.78° C | 99% | 1008.5 hPa | 3.05 mm | 2.68 m/s, 33° | 0 W/m² | - |
| 1778053769 | 12.78° C | 99% | 1008.6 hPa | 2.29 mm | 6.71 m/s, 27° | 0 W/m² | - |
| 1778053459 | 13.33° C | 99% | 1008.4 hPa | 3.05 mm | 3.13 m/s, 32° | 0 W/m² | - |
| 1778053156 | 13.89° C | 99% | 1008.4 hPa | 19.81 mm | 1.34 m/s, 115° | 0 W/m² | - |
| 1778052854 | 14.44° C | 99% | 1008.4 hPa | 17.53 mm | 1.79 m/s, 97° | 0 W/m² | - |
| 1778052551 | 15° C | 99% | 1009.2 hPa | 0 mm | 5.36 m/s, 319° | 0 W/m² | - |
| 1778052248 | 16.67° C | 99% | 1008.2 hPa | 0 mm | 4.92 m/s, 25° | 0 W/m² | - |
| 1778051946 | 17.78° C | 99% | 1007.6 hPa | 0.51 mm | 0.89 m/s, 322° | 0 W/m² | - |
| 1778051644 | 17.22° C | 99% | 1007.1 hPa | 0.51 mm | 1.79 m/s, 344° | 0 W/m² | - |
* Rain latest hour (hover to see other rain measurements)
** Current wind speed in m/s (hover to see current wind gust speed)